sensor_id;sensor_type;location;lat;lon;timestamp;P1;durP1;ratioP1;P2;durP2;ratioP2
74632;SDS011;63139;52.018;8.552;2023-05-15T00:01:33;51.95;;;21.38;;
74632;SDS011;63139;52.018;8.552;2023-05-15T00:04:02;71.43;;;24.35;;
74632;SDS011;63139;52.018;8.552;2023-05-15T00:06:31;63.55;;;21.20;;
74632;SDS011;63139;52.018;8.552;2023-05-15T00:09:00;49.60;;;19.10;;
74632;SDS011;63139;52.018;8.552;2023-05-15T00:11:28;69.35;;;21.85;;
74632;SDS011;63139;52.018;8.552;2023-05-15T00:13:56;57.90;;;18.75;;
74632;SDS011;63139;52.018;8.552;2023-05-15T00:16:24;53.13;;;20.30;;
74632;SDS011;63139;52.018;8.552;2023-05-15T00:18:52;50.95;;;20.55;;
74632;SDS011;63139;52.018;8.552;2023-05-15T00:21:20;63.13;;;23.08;;
74632;SDS011;63139;52.018;8.552;2023-05-15T00:23:50;59.30;;;21.85;;
74632;SDS011;63139;52.018;8.552;2023-05-15T00:26:21;47.53;;;23.25;;
74632;SDS011;63139;52.018;8.552;2023-05-15T00:28:50;54.30;;;21.25;;
74632;SDS011;63139;52.018;8.552;2023-05-15T00:31:18;48.55;;;22.88;;
74632;SDS011;63139;52.018;8.552;2023-05-15T00:33:46;53.75;;;20.05;;
74632;SDS011;63139;52.018;8.552;2023-05-15T00:36:14;72.65;;;18.60;;
74632;SDS011;63139;52.018;8.552;2023-05-15T00:38:42;46.35;;;20.63;;
74632;SDS011;63139;52.018;8.552;2023-05-15T00:41:12;61.70;;;21.73;;
74632;SDS011;63139;52.018;8.552;2023-05-15T00:43:41;54.40;;;22.90;;
74632;SDS011;63139;52.018;8.552;2023-05-15T00:46:12;64.38;;;22.20;;
74632;SDS011;63139;52.018;8.552;2023-05-15T00:48:41;60.40;;;20.35;;
74632;SDS011;63139;52.018;8.552;2023-05-15T00:51:10;50.13;;;19.52;;
74632;SDS011;63139;52.018;8.552;2023-05-15T00:53:38;62.00;;;22.08;;
74632;SDS011;63139;52.018;8.552;2023-05-15T00:56:08;57.10;;;18.65;;
74632;SDS011;63139;52.018;8.552;2023-05-15T00:58:39;50.45;;;20.38;;
74632;SDS011;63139;52.018;8.552;2023-05-15T01:01:08;71.32;;;24.25;;
74632;SDS011;63139;52.018;8.552;2023-05-15T01:03:37;63.95;;;20.05;;
74632;SDS011;63139;52.018;8.552;2023-05-15T01:06:05;83.05;;;23.55;;
74632;SDS011;63139;52.018;8.552;2023-05-15T01:08:37;57.47;;;19.90;;
74632;SDS011;63139;52.018;8.552;2023-05-15T01:13:41;68.00;;;17.50;;
74632;SDS011;63139;52.018;8.552;2023-05-15T01:16:10;51.17;;;18.02;;
74632;SDS011;63139;52.018;8.552;2023-05-15T01:18:38;59.60;;;17.52;;
74632;SDS011;63139;52.018;8.552;2023-05-15T01:21:19;66.32;;;19.73;;
74632;SDS011;63139;52.018;8.552;2023-05-15T01:24:10;60.13;;;21.50;;
74632;SDS011;63139;52.018;8.552;2023-05-15T01:29:40;68.03;;;22.17;;
74632;SDS011;63139;52.018;8.552;2023-05-15T01:32:15;84.00;;;20.42;;
74632;SDS011;63139;52.018;8.552;2023-05-15T01:34:47;64.60;;;20.63;;
74632;SDS011;63139;52.018;8.552;2023-05-15T01:37:24;71.47;;;21.48;;
74632;SDS011;63139;52.018;8.552;2023-05-15T01:39:57;74.05;;;20.95;;
74632;SDS011;63139;52.018;8.552;2023-05-15T01:42:32;78.15;;;24.98;;
74632;SDS011;63139;52.018;8.552;2023-05-15T01:45:03;82.07;;;23.83;;
74632;SDS011;63139;52.018;8.552;2023-05-15T01:47:36;73.07;;;22.60;;
74632;SDS011;63139;52.018;8.552;2023-05-15T01:50:08;78.28;;;25.33;;
74632;SDS011;63139;52.018;8.552;2023-05-15T01:52:40;83.75;;;23.38;;
74632;SDS011;63139;52.018;8.552;2023-05-15T01:55:11;60.70;;;20.27;;
74632;SDS011;63139;52.018;8.552;2023-05-15T01:57:42;59.75;;;18.60;;
74632;SDS011;63139;52.018;8.552;2023-05-15T02:00:13;64.65;;;19.02;;
74632;SDS011;63139;52.018;8.552;2023-05-15T02:02:43;73.63;;;21.60;;
74632;SDS011;63139;52.018;8.552;2023-05-15T02:05:12;64.45;;;23.85;;
74632;SDS011;63139;52.018;8.552;2023-05-15T02:07:41;65.85;;;27.95;;
74632;SDS011;63139;52.018;8.552;2023-05-15T02:10:11;72.57;;;28.20;;
74632;SDS011;63139;52.018;8.552;2023-05-15T02:12:46;59.25;;;25.25;;
74632;SDS011;63139;52.018;8.552;2023-05-15T02:15:16;79.82;;;26.70;;
74632;SDS011;63139;52.018;8.552;2023-05-15T02:17:45;74.63;;;26.10;;
74632;SDS011;63139;52.018;8.552;2023-05-15T02:20:13;80.43;;;22.80;;
74632;SDS011;63139;52.018;8.552;2023-05-15T02:22:41;62.78;;;27.02;;
74632;SDS011;63139;52.018;8.552;2023-05-15T02:25:09;109.25;;;25.98;;
74632;SDS011;63139;52.018;8.552;2023-05-15T02:27:40;87.22;;;27.52;;
74632;SDS011;63139;52.018;8.552;2023-05-15T02:30:28;92.07;;;23.00;;
74632;SDS011;63139;52.018;8.552;2023-05-15T02:33:09;71.80;;;25.38;;
74632;SDS011;63139;52.018;8.552;2023-05-15T02:35:46;59.47;;;24.13;;
74632;SDS011;63139;52.018;8.552;2023-05-15T02:38:18;70.22;;;27.80;;
74632;SDS011;63139;52.018;8.552;2023-05-15T02:40:51;80.53;;;26.88;;
74632;SDS011;63139;52.018;8.552;2023-05-15T02:43:22;61.17;;;25.48;;
74632;SDS011;63139;52.018;8.552;2023-05-15T02:45:54;90.32;;;23.63;;
74632;SDS011;63139;52.018;8.552;2023-05-15T02:48:23;57.85;;;23.88;;
74632;SDS011;63139;52.018;8.552;2023-05-15T02:50:52;76.78;;;22.88;;
74632;SDS011;63139;52.018;8.552;2023-05-15T02:53:20;65.20;;;24.65;;
74632;SDS011;63139;52.018;8.552;2023-05-15T02:55:49;62.40;;;22.30;;
74632;SDS011;63139;52.018;8.552;2023-05-15T02:58:17;80.85;;;23.05;;
74632;SDS011;63139;52.018;8.552;2023-05-15T03:00:45;67.70;;;21.13;;
74632;SDS011;63139;52.018;8.552;2023-05-15T03:03:14;75.38;;;22.35;;
74632;SDS011;63139;52.018;8.552;2023-05-15T03:05:42;53.42;;;23.95;;
74632;SDS011;63139;52.018;8.552;2023-05-15T03:08:10;65.00;;;23.52;;
74632;SDS011;63139;52.018;8.552;2023-05-15T03:10:38;63.65;;;24.85;;
74632;SDS011;63139;52.018;8.552;2023-05-15T03:13:06;74.05;;;27.35;;
74632;SDS011;63139;52.018;8.552;2023-05-15T03:15:34;68.38;;;26.70;;
74632;SDS011;63139;52.018;8.552;2023-05-15T03:18:02;78.22;;;28.73;;
74632;SDS011;63139;52.018;8.552;2023-05-15T03:20:32;94.72;;;27.58;;
74632;SDS011;63139;52.018;8.552;2023-05-15T03:23:01;44.63;;;24.20;;
74632;SDS011;63139;52.018;8.552;2023-05-15T03:25:29;52.90;;;23.67;;
74632;SDS011;63139;52.018;8.552;2023-05-15T03:27:57;78.00;;;25.27;;
74632;SDS011;63139;52.018;8.552;2023-05-15T03:30:25;57.97;;;26.60;;
74632;SDS011;63139;52.018;8.552;2023-05-15T03:32:53;64.63;;;22.33;;
74632;SDS011;63139;52.018;8.552;2023-05-15T03:35:23;80.20;;;27.45;;
74632;SDS011;63139;52.018;8.552;2023-05-15T03:37:53;71.90;;;23.33;;
74632;SDS011;63139;52.018;8.552;2023-05-15T03:40:21;74.18;;;24.73;;
74632;SDS011;63139;52.018;8.552;2023-05-15T03:42:49;57.88;;;25.33;;
74632;SDS011;63139;52.018;8.552;2023-05-15T03:45:19;50.05;;;26.95;;
74632;SDS011;63139;52.018;8.552;2023-05-15T03:47:47;68.88;;;28.20;;
74632;SDS011;63139;52.018;8.552;2023-05-15T03:50:16;78.57;;;28.98;;
74632;SDS011;63139;52.018;8.552;2023-05-15T03:52:44;89.45;;;28.38;;
74632;SDS011;63139;52.018;8.552;2023-05-15T03:55:14;92.32;;;25.13;;
74632;SDS011;63139;52.018;8.552;2023-05-15T03:57:42;71.40;;;24.67;;
74632;SDS011;63139;52.018;8.552;2023-05-15T04:00:11;72.55;;;25.83;;
74632;SDS011;63139;52.018;8.552;2023-05-15T04:02:41;82.70;;;26.83;;
74632;SDS011;63139;52.018;8.552;2023-05-15T04:05:09;57.03;;;28.67;;
74632;SDS011;63139;52.018;8.552;2023-05-15T04:07:38;82.95;;;29.88;;
74632;SDS011;63139;52.018;8.552;2023-05-15T04:10:06;79.25;;;27.33;;
74632;SDS011;63139;52.018;8.552;2023-05-15T04:12:36;82.43;;;29.13;;
74632;SDS011;63139;52.018;8.552;2023-05-15T04:15:14;82.10;;;30.13;;
74632;SDS011;63139;52.018;8.552;2023-05-15T04:17:44;57.15;;;26.35;;
74632;SDS011;63139;52.018;8.552;2023-05-15T04:20:13;83.10;;;29.85;;
74632;SDS011;63139;52.018;8.552;2023-05-15T04:22:43;83.55;;;30.60;;
74632;SDS011;63139;52.018;8.552;2023-05-15T04:25:12;111.38;;;29.45;;
74632;SDS011;63139;52.018;8.552;2023-05-15T04:27:43;62.88;;;26.95;;
74632;SDS011;63139;52.018;8.552;2023-05-15T04:30:11;97.05;;;31.13;;
74632;SDS011;63139;52.018;8.552;2023-05-15T04:32:40;82.22;;;29.88;;
74632;SDS011;63139;52.018;8.552;2023-05-15T04:35:08;101.47;;;30.77;;
74632;SDS011;63139;52.018;8.552;2023-05-15T04:37:40;96.20;;;26.38;;
74632;SDS011;63139;52.018;8.552;2023-05-15T04:40:11;91.88;;;28.70;;
74632;SDS011;63139;52.018;8.552;2023-05-15T04:42:43;75.95;;;28.13;;
74632;SDS011;63139;52.018;8.552;2023-05-15T04:45:12;84.30;;;28.08;;
74632;SDS011;63139;52.018;8.552;2023-05-15T04:47:41;86.55;;;25.35;;
74632;SDS011;63139;52.018;8.552;2023-05-15T04:50:09;76.95;;;22.70;;
74632;SDS011;63139;52.018;8.552;2023-05-15T04:52:37;89.53;;;29.50;;
74632;SDS011;63139;52.018;8.552;2023-05-15T04:55:05;88.13;;;31.58;;
74632;SDS011;63139;52.018;8.552;2023-05-15T04:57:34;99.15;;;33.40;;
74632;SDS011;63139;52.018;8.552;2023-05-15T05:00:04;117.53;;;33.03;;
74632;SDS011;63139;52.018;8.552;2023-05-15T05:02:35;85.53;;;31.58;;
74632;SDS011;63139;52.018;8.552;2023-05-15T05:05:04;87.75;;;34.00;;
74632;SDS011;63139;52.018;8.552;2023-05-15T05:07:32;68.68;;;32.05;;
74632;SDS011;63139;52.018;8.552;2023-05-15T05:10:00;43.72;;;26.52;;
74632;SDS011;63139;52.018;8.552;2023-05-15T05:12:29;62.40;;;29.92;;
74632;SDS011;63139;52.018;8.552;2023-05-15T05:14:57;53.22;;;27.58;;
74632;SDS011;63139;52.018;8.552;2023-05-15T05:17:28;50.75;;;27.50;;
74632;SDS011;63139;52.018;8.552;2023-05-15T05:19:56;61.20;;;27.60;;
74632;SDS011;63139;52.018;8.552;2023-05-15T05:22:24;55.42;;;28.95;;
74632;SDS011;63139;52.018;8.552;2023-05-15T05:24:52;51.38;;;27.65;;
74632;SDS011;63139;52.018;8.552;2023-05-15T05:27:20;46.97;;;26.23;;
74632;SDS011;63139;52.018;8.552;2023-05-15T05:29:48;47.45;;;25.42;;
74632;SDS011;63139;52.018;8.552;2023-05-15T05:32:18;38.10;;;24.30;;
74632;SDS011;63139;52.018;8.552;2023-05-15T05:34:48;38.67;;;23.80;;
74632;SDS011;63139;52.018;8.552;2023-05-15T05:37:16;30.77;;;20.27;;
74632;SDS011;63139;52.018;8.552;2023-05-15T05:39:44;37.40;;;22.90;;
74632;SDS011;63139;52.018;8.552;2023-05-15T05:42:12;37.88;;;23.90;;
74632;SDS011;63139;52.018;8.552;2023-05-15T05:44:40;31.30;;;20.60;;
74632;SDS011;63139;52.018;8.552;2023-05-15T05:47:18;32.78;;;22.45;;
74632;SDS011;63139;52.018;8.552;2023-05-15T05:49:47;23.35;;;16.70;;
74632;SDS011;63139;52.018;8.552;2023-05-15T05:52:15;29.00;;;17.25;;
74632;SDS011;63139;52.018;8.552;2023-05-15T05:54:43;35.03;;;23.02;;
74632;SDS011;63139;52.018;8.552;2023-05-15T05:57:13;32.78;;;19.85;;
74632;SDS011;63139;52.018;8.552;2023-05-15T05:59:41;28.13;;;20.80;;
74632;SDS011;63139;52.018;8.552;2023-05-15T06:02:09;36.78;;;22.33;;
74632;SDS011;63139;52.018;8.552;2023-05-15T06:04:38;30.90;;;19.13;;
74632;SDS011;63139;52.018;8.552;2023-05-15T06:07:08;28.33;;;18.13;;
74632;SDS011;63139;52.018;8.552;2023-05-15T06:09:36;25.75;;;19.83;;
74632;SDS011;63139;52.018;8.552;2023-05-15T06:12:04;26.38;;;18.95;;
74632;SDS011;63139;52.018;8.552;2023-05-15T06:14:34;24.08;;;19.15;;
74632;SDS011;63139;52.018;8.552;2023-05-15T06:17:02;26.02;;;18.75;;
74632;SDS011;63139;52.018;8.552;2023-05-15T06:19:31;24.88;;;19.50;;
74632;SDS011;63139;52.018;8.552;2023-05-15T06:21:59;27.95;;;20.90;;
74632;SDS011;63139;52.018;8.552;2023-05-15T06:24:29;32.97;;;23.00;;
74632;SDS011;63139;52.018;8.552;2023-05-15T06:26:57;26.70;;;19.38;;
74632;SDS011;63139;52.018;8.552;2023-05-15T06:29:25;25.38;;;19.10;;
74632;SDS011;63139;52.018;8.552;2023-05-15T06:31:53;25.98;;;19.00;;
74632;SDS011;63139;52.018;8.552;2023-05-15T06:34:21;27.27;;;19.80;;
74632;SDS011;63139;52.018;8.552;2023-05-15T06:36:50;26.30;;;20.05;;
74632;SDS011;63139;52.018;8.552;2023-05-15T06:39:18;25.00;;;19.33;;
74632;SDS011;63139;52.018;8.552;2023-05-15T06:41:47;26.17;;;19.70;;
74632;SDS011;63139;52.018;8.552;2023-05-15T06:44:17;21.33;;;17.80;;
74632;SDS011;63139;52.018;8.552;2023-05-15T06:46:45;21.77;;;17.95;;
74632;SDS011;63139;52.018;8.552;2023-05-15T06:49:13;23.45;;;18.10;;
74632;SDS011;63139;52.018;8.552;2023-05-15T06:51:41;20.95;;;17.35;;
74632;SDS011;63139;52.018;8.552;2023-05-15T06:54:09;23.95;;;18.60;;
74632;SDS011;63139;52.018;8.552;2023-05-15T06:56:37;23.10;;;18.60;;
74632;SDS011;63139;52.018;8.552;2023-05-15T06:59:07;20.98;;;17.65;;
74632;SDS011;63139;52.018;8.552;2023-05-15T07:01:35;19.73;;;17.17;;
74632;SDS011;63139;52.018;8.552;2023-05-15T07:04:04;21.52;;;17.27;;
74632;SDS011;63139;52.018;8.552;2023-05-15T07:06:32;22.83;;;16.70;;
74632;SDS011;63139;52.018;8.552;2023-05-15T07:09:00;22.63;;;16.35;;
74632;SDS011;63139;52.018;8.552;2023-05-15T07:11:28;20.38;;;16.10;;
74632;SDS011;63139;52.018;8.552;2023-05-15T07:13:56;22.08;;;17.20;;
74632;SDS011;63139;52.018;8.552;2023-05-15T07:16:25;20.77;;;17.52;;
74632;SDS011;63139;52.018;8.552;2023-05-15T07:18:53;23.95;;;18.42;;
74632;SDS011;63139;52.018;8.552;2023-05-15T07:21:21;20.48;;;17.83;;
74632;SDS011;63139;52.018;8.552;2023-05-15T07:23:49;22.30;;;17.58;;
74632;SDS011;63139;52.018;8.552;2023-05-15T07:26:17;20.75;;;17.40;;
74632;SDS011;63139;52.018;8.552;2023-05-15T07:29:01;28.17;;;19.63;;
74632;SDS011;63139;52.018;8.552;2023-05-15T07:31:31;22.92;;;18.45;;
74632;SDS011;63139;52.018;8.552;2023-05-15T07:34:00;22.60;;;17.20;;
74632;SDS011;63139;52.018;8.552;2023-05-15T07:36:28;22.75;;;18.00;;
74632;SDS011;63139;52.018;8.552;2023-05-15T07:38:57;20.63;;;17.67;;
74632;SDS011;63139;52.018;8.552;2023-05-15T07:41:25;21.58;;;17.60;;
74632;SDS011;63139;52.018;8.552;2023-05-15T07:43:53;21.92;;;17.98;;
74632;SDS011;63139;52.018;8.552;2023-05-15T07:46:21;21.30;;;16.42;;
74632;SDS011;63139;52.018;8.552;2023-05-15T07:48:51;21.85;;;16.17;;
74632;SDS011;63139;52.018;8.552;2023-05-15T07:51:19;20.55;;;16.58;;
74632;SDS011;63139;52.018;8.552;2023-05-15T07:53:47;19.38;;;15.90;;
74632;SDS011;63139;52.018;8.552;2023-05-15T07:56:15;18.92;;;14.38;;
74632;SDS011;63139;52.018;8.552;2023-05-15T07:58:43;18.40;;;14.63;;
74632;SDS011;63139;52.018;8.552;2023-05-15T08:01:11;18.98;;;14.93;;
74632;SDS011;63139;52.018;8.552;2023-05-15T08:03:39;18.13;;;15.77;;
74632;SDS011;63139;52.018;8.552;2023-05-15T08:06:09;13.60;;;12.13;;
74632;SDS011;63139;52.018;8.552;2023-05-15T08:08:37;14.77;;;13.18;;
74632;SDS011;63139;52.018;8.552;2023-05-15T08:11:05;14.60;;;12.60;;
74632;SDS011;63139;52.018;8.552;2023-05-15T08:13:33;14.02;;;12.35;;
74632;SDS011;63139;52.018;8.552;2023-05-15T08:16:02;14.52;;;12.32;;
74632;SDS011;63139;52.018;8.552;2023-05-15T08:18:30;14.70;;;13.05;;
74632;SDS011;63139;52.018;8.552;2023-05-15T08:20:59;14.13;;;12.45;;
74632;SDS011;63139;52.018;8.552;2023-05-15T08:23:30;16.67;;;14.40;;
74632;SDS011;63139;52.018;8.552;2023-05-15T08:25:58;14.57;;;13.10;;
74632;SDS011;63139;52.018;8.552;2023-05-15T08:28:26;15.45;;;12.55;;
74632;SDS011;63139;52.018;8.552;2023-05-15T08:30:55;15.95;;;13.07;;
74632;SDS011;63139;52.018;8.552;2023-05-15T08:33:23;14.63;;;12.32;;
74632;SDS011;63139;52.018;8.552;2023-05-15T08:35:51;16.80;;;13.77;;
74632;SDS011;63139;52.018;8.552;2023-05-15T08:38:19;14.95;;;12.75;;
74632;SDS011;63139;52.018;8.552;2023-05-15T08:40:49;16.95;;;15.00;;
74632;SDS011;63139;52.018;8.552;2023-05-15T08:43:21;14.80;;;13.20;;
74632;SDS011;63139;52.018;8.552;2023-05-15T08:45:49;15.20;;;12.38;;
74632;SDS011;63139;52.018;8.552;2023-05-15T08:48:20;15.13;;;12.38;;
74632;SDS011;63139;52.018;8.552;2023-05-15T08:50:51;21.50;;;13.80;;
74632;SDS011;63139;52.018;8.552;2023-05-15T08:53:23;14.13;;;12.73;;
74632;SDS011;63139;52.018;8.552;2023-05-15T08:55:52;13.35;;;12.05;;
74632;SDS011;63139;52.018;8.552;2023-05-15T08:58:21;14.38;;;12.45;;
74632;SDS011;63139;52.018;8.552;2023-05-15T09:00:51;14.32;;;10.85;;
74632;SDS011;63139;52.018;8.552;2023-05-15T09:03:19;13.10;;;11.70;;
74632;SDS011;63139;52.018;8.552;2023-05-15T09:05:48;15.13;;;11.75;;
74632;SDS011;63139;52.018;8.552;2023-05-15T09:08:19;12.73;;;11.07;;
74632;SDS011;63139;52.018;8.552;2023-05-15T09:10:48;15.57;;;12.95;;
74632;SDS011;63139;52.018;8.552;2023-05-15T09:13:20;14.75;;;12.98;;
74632;SDS011;63139;52.018;8.552;2023-05-15T09:15:48;18.00;;;13.13;;
74632;SDS011;63139;52.018;8.552;2023-05-15T09:18:17;15.07;;;13.48;;
74632;SDS011;63139;52.018;8.552;2023-05-15T09:20:45;14.82;;;13.27;;
74632;SDS011;63139;52.018;8.552;2023-05-15T09:23:23;14.45;;;12.68;;
74632;SDS011;63139;52.018;8.552;2023-05-15T09:25:52;14.90;;;13.05;;
74632;SDS011;63139;52.018;8.552;2023-05-15T09:28:27;15.32;;;13.73;;
74632;SDS011;63139;52.018;8.552;2023-05-15T09:30:58;16.38;;;14.55;;
74632;SDS011;63139;52.018;8.552;2023-05-15T09:33:28;17.33;;;14.70;;
74632;SDS011;63139;52.018;8.552;2023-05-15T09:35:58;17.88;;;14.60;;
74632;SDS011;63139;52.018;8.552;2023-05-15T09:38:27;18.58;;;16.15;;
74632;SDS011;63139;52.018;8.552;2023-05-15T09:41:00;20.90;;;17.40;;
74632;SDS011;63139;52.018;8.552;2023-05-15T09:43:33;18.65;;;15.82;;
74632;SDS011;63139;52.018;8.552;2023-05-15T09:46:03;19.15;;;17.05;;
74632;SDS011;63139;52.018;8.552;2023-05-15T09:48:33;18.52;;;16.27;;
74632;SDS011;63139;52.018;8.552;2023-05-15T09:51:02;19.27;;;17.25;;
74632;SDS011;63139;52.018;8.552;2023-05-15T09:53:33;20.48;;;17.25;;
74632;SDS011;63139;52.018;8.552;2023-05-15T09:56:03;19.35;;;15.80;;
74632;SDS011;63139;52.018;8.552;2023-05-15T09:58:33;18.95;;;14.75;;
74632;SDS011;63139;52.018;8.552;2023-05-15T10:01:01;17.30;;;13.13;;
74632;SDS011;63139;52.018;8.552;2023-05-15T10:03:30;17.45;;;14.90;;
74632;SDS011;63139;52.018;8.552;2023-05-15T10:05:58;20.20;;;15.40;;
74632;SDS011;63139;52.018;8.552;2023-05-15T10:08:29;21.73;;;18.13;;
74632;SDS011;63139;52.018;8.552;2023-05-15T10:10:58;20.08;;;16.13;;
74632;SDS011;63139;52.018;8.552;2023-05-15T10:13:27;17.92;;;15.57;;
74632;SDS011;63139;52.018;8.552;2023-05-15T10:16:00;17.15;;;14.30;;
74632;SDS011;63139;52.018;8.552;2023-05-15T10:18:30;13.13;;;11.48;;
74632;SDS011;63139;52.018;8.552;2023-05-15T10:21:00;14.63;;;12.63;;
74632;SDS011;63139;52.018;8.552;2023-05-15T10:23:30;15.10;;;11.20;;
74632;SDS011;63139;52.018;8.552;2023-05-15T10:26:01;13.35;;;10.73;;
74632;SDS011;63139;52.018;8.552;2023-05-15T10:28:33;11.40;;;10.15;;
74632;SDS011;63139;52.018;8.552;2023-05-15T10:31:04;12.20;;;9.10;;
74632;SDS011;63139;52.018;8.552;2023-05-15T10:33:33;10.80;;;8.27;;
74632;SDS011;63139;52.018;8.552;2023-05-15T10:36:03;12.98;;;8.50;;
74632;SDS011;63139;52.018;8.552;2023-05-15T10:38:32;9.68;;;8.63;;
74632;SDS011;63139;52.018;8.552;2023-05-15T10:41:01;10.48;;;8.43;;
74632;SDS011;63139;52.018;8.552;2023-05-15T10:43:42;8.43;;;7.63;;
74632;SDS011;63139;52.018;8.552;2023-05-15T10:46:12;8.18;;;7.22;;
74632;SDS011;63139;52.018;8.552;2023-05-15T10:48:42;8.98;;;7.72;;
74632;SDS011;63139;52.018;8.552;2023-05-15T10:51:13;7.72;;;6.60;;
74632;SDS011;63139;52.018;8.552;2023-05-15T10:53:43;9.55;;;8.20;;
74632;SDS011;63139;52.018;8.552;2023-05-15T10:56:12;10.45;;;9.02;;
74632;SDS011;63139;52.018;8.552;2023-05-15T10:58:43;11.52;;;10.18;;
74632;SDS011;63139;52.018;8.552;2023-05-15T11:01:27;12.65;;;10.95;;
74632;SDS011;63139;52.018;8.552;2023-05-15T11:04:07;15.02;;;13.13;;
74632;SDS011;63139;52.018;8.552;2023-05-15T11:06:37;14.18;;;12.18;;
74632;SDS011;63139;52.018;8.552;2023-05-15T11:14:31;19.65;;;15.20;;
74632;SDS011;63139;52.018;8.552;2023-05-15T11:17:03;18.55;;;15.50;;
74632;SDS011;63139;52.018;8.552;2023-05-15T11:19:34;21.90;;;16.08;;
74632;SDS011;63139;52.018;8.552;2023-05-15T11:22:17;24.08;;;18.23;;
74632;SDS011;63139;52.018;8.552;2023-05-15T11:24:48;25.38;;;18.27;;
74632;SDS011;63139;52.018;8.552;2023-05-15T11:27:18;23.45;;;16.98;;
74632;SDS011;63139;52.018;8.552;2023-05-15T11:30:10;26.70;;;20.15;;
74632;SDS011;63139;52.018;8.552;2023-05-15T11:32:47;27.08;;;21.50;;
74632;SDS011;63139;52.018;8.552;2023-05-15T11:35:22;28.33;;;21.58;;
74632;SDS011;63139;52.018;8.552;2023-05-15T11:37:51;28.23;;;21.67;;
74632;SDS011;63139;52.018;8.552;2023-05-15T11:40:22;24.23;;;19.23;;
74632;SDS011;63139;52.018;8.552;2023-05-15T11:43:04;24.30;;;20.13;;
74632;SDS011;63139;52.018;8.552;2023-05-15T11:45:35;22.13;;;17.75;;
74632;SDS011;63139;52.018;8.552;2023-05-15T11:48:06;22.75;;;18.60;;
74632;SDS011;63139;52.018;8.552;2023-05-15T11:50:35;19.45;;;16.65;;
74632;SDS011;63139;52.018;8.552;2023-05-15T11:53:04;18.48;;;15.73;;
74632;SDS011;63139;52.018;8.552;2023-05-15T11:55:33;25.48;;;18.15;;
74632;SDS011;63139;52.018;8.552;2023-05-15T11:58:03;20.83;;;17.25;;
74632;SDS011;63139;52.018;8.552;2023-05-15T12:00:32;20.70;;;16.52;;
74632;SDS011;63139;52.018;8.552;2023-05-15T12:03:00;20.00;;;15.10;;
74632;SDS011;63139;52.018;8.552;2023-05-15T12:05:31;21.08;;;16.67;;
74632;SDS011;63139;52.018;8.552;2023-05-15T12:07:59;18.90;;;14.57;;
74632;SDS011;63139;52.018;8.552;2023-05-15T12:10:28;19.85;;;15.60;;
74632;SDS011;63139;52.018;8.552;2023-05-15T12:12:56;18.27;;;15.38;;
74632;SDS011;63139;52.018;8.552;2023-05-15T12:15:25;20.60;;;16.27;;
74632;SDS011;63139;52.018;8.552;2023-05-15T12:17:53;18.90;;;14.10;;
74632;SDS011;63139;52.018;8.552;2023-05-15T12:20:21;14.63;;;11.82;;
74632;SDS011;63139;52.018;8.552;2023-05-15T12:22:51;14.73;;;9.95;;
74632;SDS011;63139;52.018;8.552;2023-05-15T12:25:19;15.82;;;11.77;;
74632;SDS011;63139;52.018;8.552;2023-05-15T12:27:47;12.10;;;9.27;;
74632;SDS011;63139;52.018;8.552;2023-05-15T12:30:15;12.45;;;10.20;;
74632;SDS011;63139;52.018;8.552;2023-05-15T12:32:44;11.55;;;10.23;;
74632;SDS011;63139;52.018;8.552;2023-05-15T12:35:13;14.75;;;11.10;;
74632;SDS011;63139;52.018;8.552;2023-05-15T12:37:42;17.95;;;12.65;;
74632;SDS011;63139;52.018;8.552;2023-05-15T12:40:12;16.58;;;12.95;;
74632;SDS011;63139;52.018;8.552;2023-05-15T12:42:40;16.05;;;12.98;;
74632;SDS011;63139;52.018;8.552;2023-05-15T12:45:13;13.98;;;11.00;;
74632;SDS011;63139;52.018;8.552;2023-05-15T12:47:42;17.95;;;13.55;;
74632;SDS011;63139;52.018;8.552;2023-05-15T12:50:14;16.25;;;12.23;;
74632;SDS011;63139;52.018;8.552;2023-05-15T12:52:49;17.33;;;11.38;;
74632;SDS011;63139;52.018;8.552;2023-05-15T12:55:25;19.60;;;13.40;;
74632;SDS011;63139;52.018;8.552;2023-05-15T12:57:55;20.90;;;14.23;;
74632;SDS011;63139;52.018;8.552;2023-05-15T13:00:24;16.25;;;12.50;;
74632;SDS011;63139;52.018;8.552;2023-05-15T13:02:53;18.02;;;12.15;;
74632;SDS011;63139;52.018;8.552;2023-05-15T13:05:23;17.35;;;13.07;;
74632;SDS011;63139;52.018;8.552;2023-05-15T13:07:51;15.15;;;10.95;;
74632;SDS011;63139;52.018;8.552;2023-05-15T13:10:20;13.27;;;10.80;;
74632;SDS011;63139;52.018;8.552;2023-05-15T13:12:51;12.88;;;10.73;;
74632;SDS011;63139;52.018;8.552;2023-05-15T13:15:21;11.88;;;10.20;;
74632;SDS011;63139;52.018;8.552;2023-05-15T13:17:52;12.70;;;10.43;;
74632;SDS011;63139;52.018;8.552;2023-05-15T13:20:24;13.43;;;11.80;;
74632;SDS011;63139;52.018;8.552;2023-05-15T13:22:53;14.75;;;11.77;;
74632;SDS011;63139;52.018;8.552;2023-05-15T13:25:21;13.07;;;11.13;;
74632;SDS011;63139;52.018;8.552;2023-05-15T13:27:51;16.88;;;11.18;;
74632;SDS011;63139;52.018;8.552;2023-05-15T13:30:19;9.98;;;8.85;;
74632;SDS011;63139;52.018;8.552;2023-05-15T13:32:48;11.65;;;8.50;;
74632;SDS011;63139;52.018;8.552;2023-05-15T13:35:18;13.40;;;9.05;;
74632;SDS011;63139;52.018;8.552;2023-05-15T13:37:46;15.18;;;10.52;;
74632;SDS011;63139;52.018;8.552;2023-05-15T13:40:15;9.80;;;8.25;;
74632;SDS011;63139;52.018;8.552;2023-05-15T13:42:43;13.52;;;10.85;;
74632;SDS011;63139;52.018;8.552;2023-05-15T13:45:13;11.40;;;10.15;;
74632;SDS011;63139;52.018;8.552;2023-05-15T13:47:42;13.63;;;10.35;;
74632;SDS011;63139;52.018;8.552;2023-05-15T13:50:11;14.88;;;11.80;;
74632;SDS011;63139;52.018;8.552;2023-05-15T13:52:40;13.35;;;10.95;;
74632;SDS011;63139;52.018;8.552;2023-05-15T13:55:09;15.73;;;9.45;;
74632;SDS011;63139;52.018;8.552;2023-05-15T13:57:38;10.95;;;8.32;;
74632;SDS011;63139;52.018;8.552;2023-05-15T14:00:07;12.27;;;10.10;;
74632;SDS011;63139;52.018;8.552;2023-05-15T14:02:40;11.63;;;8.80;;
74632;SDS011;63139;52.018;8.552;2023-05-15T14:05:10;15.07;;;11.38;;
74632;SDS011;63139;52.018;8.552;2023-05-15T14:07:39;14.43;;;10.75;;
74632;SDS011;63139;52.018;8.552;2023-05-15T14:10:08;13.85;;;10.32;;
74632;SDS011;63139;52.018;8.552;2023-05-15T14:12:37;11.82;;;9.63;;
74632;SDS011;63139;52.018;8.552;2023-05-15T14:15:05;15.75;;;9.27;;
74632;SDS011;63139;52.018;8.552;2023-05-15T14:17:34;12.88;;;10.57;;
74632;SDS011;63139;52.018;8.552;2023-05-15T14:20:04;17.55;;;11.55;;
74632;SDS011;63139;52.018;8.552;2023-05-15T14:22:35;16.58;;;12.50;;
74632;SDS011;63139;52.018;8.552;2023-05-15T14:25:04;12.65;;;10.55;;
74632;SDS011;63139;52.018;8.552;2023-05-15T14:27:32;16.42;;;12.48;;
74632;SDS011;63139;52.018;8.552;2023-05-15T14:30:00;20.02;;;14.95;;
74632;SDS011;63139;52.018;8.552;2023-05-15T14:32:29;17.63;;;13.25;;
74632;SDS011;63139;52.018;8.552;2023-05-15T14:34:57;15.55;;;12.40;;
74632;SDS011;63139;52.018;8.552;2023-05-15T14:37:27;16.83;;;12.10;;
74632;SDS011;63139;52.018;8.552;2023-05-15T14:39:55;12.48;;;10.20;;
74632;SDS011;63139;52.018;8.552;2023-05-15T14:42:23;19.25;;;12.52;;
74632;SDS011;63139;52.018;8.552;2023-05-15T14:44:52;12.55;;;10.82;;
74632;SDS011;63139;52.018;8.552;2023-05-15T14:47:20;14.30;;;11.20;;
74632;SDS011;63139;52.018;8.552;2023-05-15T14:49:48;11.15;;;9.75;;